Aérodrome :
LOGIN :

S'inscrire | Disclaimer

   EN    FR    IT 

 










Légende :    VFR   VFR Marginal   IFR   IFR Intensif   IFR Très Intensif
Visi : 
Plafond : 
>= 8 km
>= 3000ft
5 à 8 km
1000 à 3000 ft
1500m à 5 km
500 à 1000 ft
800 à 1500m
200 à 500 ft
< 800m
< 200 ft
Symboles :   Orages  Brouillard  Fortes neiges  Fortes précipitations  Vent > 20 kt
SIGMETs :   Divers  Orages  Givrage  Turbulence  Onde Orograph.  Cendres Volcan.







- Altitude de l'aérodrome : 1036 ft
- Code IATA : ERF


EDDE - Erfurt

DERNIER METAR :
  • 250550Z 32007KT 9999 FEW010 BKN030 12/10 Q1021 NOSIG

METARs EXPIRÉS :
  • 250520Z 31006KT 9999 FEW010 BKN033 12/11 Q1021 NOSIG
  • 250450Z 30005KT 9999 FEW010 BKN033 12/11 Q1021 NOSIG
  • 250420Z 29005KT 9999 SCT011 BKN038 12/11 Q1021 NOSIG
  • 250350Z 34004KT 9999 SCT008 BKN036 12/11 Q1020 NOSIG
  • 250320Z 33005KT 9999 FEW010 BKN036 12/11 Q1020

TAF TAF EDDE
Valide du 25 à 06h jusqu'au 26 à 06h UTC


250500Z 2506/2606 32006KT 9999 SCT020 BKN040
TEMPO 2516/2520 32011KT
BECMG 2520/2522 VRB02KT
Pas de NOTAMs connus pour ce terrain.



MET'MAP, la Météo Aéronautique d'un coup d'oeil ! - Copyright ORBIFLY Décembre 2007 - Disclaimer

ORBIFLY MET'MAP TEAM :

Programmation & Développement : Alexandra Zaïnal
Conception & Développement : Baudouin d'Aumeries
Co-Programmation & Développement : Marc-Olivier Méhu
Soutien technique & logistique : Manuel Goepfert

Contact : metmap@orbifly.com




SOURCES & CREDITS :

   NOAA